createdAt,value
2023-03-22T00:00:41.279Z,97477.56
2023-03-22T00:02:42.764Z,97478.69
2023-03-22T00:04:44.288Z,97482.91
2023-03-22T00:06:45.688Z,97471.75
2023-03-22T00:08:47.022Z,97472.66
2023-03-22T00:10:48.314Z,97466.72
2023-03-22T00:12:49.623Z,97471.75
2023-03-22T00:14:52.241Z,97467.50
2023-03-22T00:16:53.539Z,97464.94
2023-03-22T00:18:54.871Z,97465.00
2023-03-22T00:20:56.192Z,97468.28
2023-03-22T00:22:57.540Z,97460.63
2023-03-22T00:24:58.855Z,97452.22
2023-03-22T00:27:00.915Z,97459.91
2023-03-22T00:29:02.323Z,97455.72
2023-03-22T00:31:03.797Z,97458.38
2023-03-22T00:33:05.291Z,97451.66
2023-03-22T00:35:06.597Z,97449.16
2023-03-22T00:37:08.158Z,97444.16
2023-03-22T00:39:09.524Z,97447.56
2023-03-22T00:41:11.073Z,97446.78
2023-03-22T00:43:12.440Z,97442.53
2023-03-22T00:45:13.784Z,97449.28
2023-03-22T00:47:15.365Z,97443.41
2023-03-22T00:49:16.720Z,97451.91
2023-03-22T00:51:18.224Z,97451.97
2023-03-22T00:53:19.566Z,97453.59
2023-03-22T00:55:20.899Z,97455.31
2023-03-22T00:57:22.199Z,97450.28
2023-03-22T00:59:24.052Z,97458.03
2023-03-22T01:01:25.518Z,97455.56
2023-03-22T01:03:26.963Z,97455.56
2023-03-22T01:05:28.419Z,97456.41
2023-03-22T01:07:29.752Z,97452.13
2023-03-22T01:09:33.599Z,97451.22
2023-03-22T01:11:34.889Z,97450.38
2023-03-22T01:13:39.439Z,97461.41
2023-03-22T01:15:41.482Z,97452.81
2023-03-22T01:17:43.315Z,97445.94
2023-03-22T01:19:44.654Z,97440.75
2023-03-22T01:21:45.983Z,97442.44
2023-03-22T01:23:47.451Z,97438.19
2023-03-22T01:25:49.027Z,97438.97
2023-03-22T01:27:50.353Z,97429.47
2023-03-22T01:29:51.653Z,97423.31
2023-03-22T01:31:52.964Z,97424.19
2023-03-22T01:33:54.327Z,97419.97
2023-03-22T01:35:55.642Z,97414.03
2023-03-22T01:37:56.944Z,97408.00
2023-03-22T01:39:58.251Z,97402.03
2023-03-22T01:41:59.581Z,97413.97
2023-03-22T01:44:03.037Z,97411.41
2023-03-22T01:46:04.426Z,97402.09
2023-03-22T01:48:05.827Z,97408.06
2023-03-22T01:50:07.181Z,97413.25
2023-03-22T01:52:08.529Z,97416.66
2023-03-22T01:54:09.872Z,97425.16
2023-03-22T01:56:11.280Z,97421.03
2023-03-22T01:58:12.570Z,97419.41
2023-03-22T02:00:15.829Z,97404.16
2023-03-22T02:02:20.243Z,97404.19
2023-03-22T02:04:23.434Z,97409.34
2023-03-22T02:06:24.757Z,97405.13
2023-03-22T02:08:26.056Z,97400.09
2023-03-22T02:10:27.414Z,97402.56
2023-03-22T02:12:28.713Z,97413.53
2023-03-22T02:14:30.123Z,97414.38
2023-03-22T02:16:31.498Z,97414.38
2023-03-22T02:18:32.786Z,97414.44
2023-03-22T02:20:34.115Z,97414.47
2023-03-22T02:22:39.062Z,97404.34
2023-03-22T02:24:43.895Z,97401.00
2023-03-22T02:26:47.103Z,97379.75
2023-03-22T02:28:48.550Z,97383.91
2023-03-22T02:30:49.929Z,97383.81
2023-03-22T02:32:51.279Z,97370.22
2023-03-22T02:34:53.991Z,97373.63
2023-03-22T02:36:55.301Z,97376.09
2023-03-22T02:38:57.743Z,97383.81
2023-03-22T02:40:59.105Z,97374.44
2023-03-22T02:43:00.560Z,97377.81
2023-03-22T02:45:01.848Z,97379.50
2023-03-22T02:47:03.162Z,97380.34
2023-03-22T02:49:04.474Z,97376.94
2023-03-22T02:51:05.800Z,97376.91
2023-03-22T02:53:07.159Z,97376.84
2023-03-22T02:55:08.838Z,97383.63
2023-03-22T02:57:10.308Z,97375.91
2023-03-22T02:59:11.665Z,97379.25
2023-03-22T03:01:13.009Z,97380.88
2023-03-22T03:03:14.971Z,97379.13
2023-03-22T03:05:16.302Z,97376.50
2023-03-22T03:07:17.635Z,97372.25
2023-03-22T03:09:19.307Z,97374.03
2023-03-22T03:11:21.256Z,97369.94
2023-03-22T03:13:22.582Z,97377.59
2023-03-22T03:15:23.888Z,97377.63
2023-03-22T03:17:25.707Z,97374.28
2023-03-22T03:19:27.026Z,97369.13
2023-03-22T03:21:30.086Z,97371.59
2023-03-22T03:23:31.426Z,97367.41
2023-03-22T03:25:32.753Z,97367.47
2023-03-22T03:27:34.048Z,97363.25
2023-03-22T03:29:35.523Z,97368.34
2023-03-22T03:31:36.855Z,97378.66
2023-03-22T03:33:38.304Z,97377.09
2023-03-22T03:35:39.685Z,97378.88
2023-03-22T03:37:41.438Z,97384.78
2023-03-22T03:39:42.821Z,97382.38
2023-03-22T03:41:44.144Z,97380.28
2023-03-22T03:43:45.439Z,97375.97
2023-03-22T03:45:46.795Z,97380.31
2023-03-22T03:47:48.228Z,97385.25
2023-03-22T03:49:49.564Z,97377.19
2023-03-22T03:51:50.934Z,97385.97
2023-03-22T03:53:52.268Z,97389.16
2023-03-22T03:55:53.601Z,97388.47
2023-03-22T03:57:54.950Z,97390.03
2023-03-22T03:59:56.242Z,97381.50
2023-03-22T04:01:57.680Z,97377.19
2023-03-22T04:03:59.056Z,97376.03
2023-03-22T04:06:00.796Z,97379.41
2023-03-22T04:08:02.245Z,97377.00
2023-03-22T04:10:03.627Z,97379.50
2023-03-22T04:12:04.932Z,97378.44
2023-03-22T04:14:06.484Z,97380.06
2023-03-22T04:16:07.793Z,97370.63
2023-03-22T04:18:09.783Z,97369.69
2023-03-22T04:20:11.159Z,97377.13
2023-03-22T04:22:14.839Z,97371.09
2023-03-22T04:24:16.224Z,97374.44
2023-03-22T04:26:17.515Z,97371.81
2023-03-22T04:28:20.364Z,97368.34
2023-03-22T04:30:22.849Z,97364.97
2023-03-22T04:32:26.317Z,97370.06
2023-03-22T04:34:27.635Z,97370.06
2023-03-22T04:36:31.177Z,97367.56
2023-03-22T04:38:32.935Z,97363.41
2023-03-22T04:40:36.567Z,97361.72
2023-03-22T04:42:38.075Z,97361.81
2023-03-22T04:44:39.433Z,97371.31
2023-03-22T04:46:40.877Z,97365.34
2023-03-22T04:48:42.236Z,97366.38
2023-03-22T04:50:43.596Z,97363.06
2023-03-22T04:52:44.923Z,97240.50
2023-03-22T04:54:46.232Z,97366.66
2023-03-22T04:56:47.563Z,97370.13
2023-03-22T04:58:48.961Z,97370.28
2023-03-22T05:00:50.280Z,97370.38
2023-03-22T05:02:51.637Z,97359.41
2023-03-22T05:04:52.957Z,97368.06
2023-03-22T05:06:54.280Z,97365.66
2023-03-22T05:08:56.549Z,97361.59
2023-03-22T05:10:57.849Z,97364.25
2023-03-22T05:12:59.186Z,97370.31
2023-03-22T05:15:03.632Z,97371.28
2023-03-22T05:17:05.189Z,97373.09
2023-03-22T05:19:06.705Z,97368.91
2023-03-22T05:21:08.675Z,97374.94
2023-03-22T05:23:10.160Z,97375.00
2023-03-22T05:25:11.717Z,97374.09
2023-03-22T05:27:14.213Z,97372.31
2023-03-22T05:29:16.146Z,97366.28
2023-03-22T05:31:17.492Z,97372.06
2023-03-22T05:33:22.041Z,97372.00
2023-03-22T05:35:23.451Z,97375.31
2023-03-22T05:37:25.441Z,97369.25
2023-03-22T05:39:26.728Z,97369.00
2023-03-22T05:41:28.058Z,97369.63
2023-03-22T05:43:29.420Z,97369.41
2023-03-22T05:45:32.505Z,97371.75
2023-03-22T05:47:34.000Z,97363.06
2023-03-22T05:49:35.349Z,97373.94
2023-03-22T05:51:41.719Z,97365.34
2023-03-22T05:53:43.392Z,97366.91
2023-03-22T05:55:44.906Z,97366.88
2023-03-22T05:57:51.469Z,97363.44
2023-03-22T05:59:54.050Z,97359.94
2023-03-22T06:01:55.472Z,97366.78
2023-03-22T06:03:56.772Z,97370.97
2023-03-22T06:05:58.063Z,97371.91
2023-03-22T06:07:59.364Z,97373.63
2023-03-22T06:10:00.779Z,97368.59
2023-03-22T06:12:02.168Z,97374.56
2023-03-22T06:14:03.465Z,97368.69
2023-03-22T06:16:04.856Z,97374.72
2023-03-22T06:18:06.282Z,97373.94
2023-03-22T06:20:10.177Z,97385.13
2023-03-22T06:22:11.508Z,97380.94
2023-03-22T06:24:12.831Z,97379.38
2023-03-22T06:26:14.123Z,97379.47
2023-03-22T06:28:15.535Z,97374.47
2023-03-22T06:30:16.867Z,97376.31
2023-03-22T06:32:18.183Z,97373.00
2023-03-22T06:34:19.528Z,97375.63
2023-03-22T06:36:21.169Z,97365.53
2023-03-22T06:38:22.464Z,97373.25
2023-03-22T06:40:23.872Z,97370.84
2023-03-22T06:42:26.102Z,97367.47
2023-03-22T06:44:27.417Z,97358.25
2023-03-22T06:46:28.796Z,97363.34
2023-03-22T06:48:30.248Z,97371.94
2023-03-22T06:50:31.643Z,97370.31
2023-03-22T06:52:33.004Z,97361.00
2023-03-22T06:54:34.369Z,97366.13
2023-03-22T06:56:35.693Z,97361.88
2023-03-22T06:58:37.112Z,97360.16
2023-03-22T07:00:38.977Z,97356.75
2023-03-22T07:02:40.641Z,97359.31
2023-03-22T07:04:42.086Z,97360.97
2023-03-22T07:06:43.408Z,97353.16
2023-03-22T07:08:44.721Z,97360.75
2023-03-22T07:10:46.023Z,97361.50
2023-03-22T07:12:47.361Z,97363.91
2023-03-22T07:14:48.706Z,97360.34
2023-03-22T07:16:50.166Z,97359.31
2023-03-22T07:18:51.536Z,97350.72
2023-03-22T07:20:52.848Z,97348.00
2023-03-22T07:22:54.193Z,97361.53
2023-03-22T07:24:58.833Z,97357.09
2023-03-22T07:27:02.223Z,97356.19
2023-03-22T07:29:03.574Z,97357.03
2023-03-22T07:31:04.967Z,97352.63
2023-03-22T07:33:06.606Z,97355.19
2023-03-22T07:35:07.946Z,97353.47
2023-03-22T07:37:09.566Z,97358.56
2023-03-22T07:39:11.240Z,97351.69
2023-03-22T07:41:12.551Z,97340.69
2023-03-22T07:43:13.864Z,97342.38
2023-03-22T07:45:15.425Z,97340.72
2023-03-22T07:47:20.294Z,97346.72
2023-03-22T07:49:26.791Z,97337.38
2023-03-22T07:51:28.377Z,97340.88
2023-03-22T07:53:29.710Z,97337.53
2023-03-22T07:55:31.031Z,97348.63
2023-03-22T07:57:32.556Z,97346.16
2023-03-22T07:59:33.852Z,97347.91
2023-03-22T08:01:35.330Z,97347.06
2023-03-22T08:03:36.676Z,97341.97
2023-03-22T08:05:38.474Z,97346.16
2023-03-22T08:07:39.976Z,97359.59
2023-03-22T08:09:41.308Z,97345.03
2023-03-22T08:11:42.647Z,97348.38
2023-03-22T08:13:43.950Z,97346.72
2023-03-22T08:15:45.392Z,97350.97
2023-03-22T08:17:49.807Z,97350.97
2023-03-22T08:19:51.231Z,97350.97
2023-03-22T08:21:52.579Z,97345.91
2023-03-22T08:23:54.007Z,97351.06
2023-03-22T08:25:55.806Z,97356.94
2023-03-22T08:27:57.253Z,97345.91
2023-03-22T08:29:58.726Z,97350.13
2023-03-22T08:32:02.480Z,97350.13
2023-03-22T08:34:03.897Z,97338.16
2023-03-22T08:36:05.485Z,97347.41
2023-03-22T08:38:06.878Z,97354.16
2023-03-22T08:40:09.615Z,97349.06
2023-03-22T08:42:11.007Z,97348.19
2023-03-22T08:44:12.346Z,97350.72
2023-03-22T08:46:13.719Z,97352.44
2023-03-22T08:48:15.087Z,97352.44
2023-03-22T08:50:16.446Z,97347.19
2023-03-22T08:52:17.766Z,97342.91
2023-03-22T08:54:19.075Z,97350.44
2023-03-22T08:56:22.651Z,97349.50
2023-03-22T08:58:23.964Z,97350.28
2023-03-22T09:00:25.658Z,97351.84
2023-03-22T09:02:27.038Z,97352.66
2023-03-22T09:04:28.448Z,97352.59
2023-03-22T09:06:29.804Z,97344.91
2023-03-22T09:08:31.252Z,97347.38
2023-03-22T09:10:32.609Z,97350.81
2023-03-22T09:12:33.947Z,97347.38
2023-03-22T09:14:35.317Z,97349.94
2023-03-22T09:16:36.721Z,97348.31
2023-03-22T09:18:38.104Z,97344.16
2023-03-22T09:20:39.827Z,97351.81
2023-03-22T09:22:41.322Z,97346.81
2023-03-22T09:24:42.629Z,97346.03
2023-03-22T09:26:43.973Z,97342.66
2023-03-22T09:28:46.818Z,97340.97
2023-03-22T09:30:48.235Z,97339.34
2023-03-22T09:32:49.548Z,97341.88
2023-03-22T09:34:50.828Z,97329.19
2023-03-22T09:36:52.840Z,97339.41
2023-03-22T09:38:54.163Z,97335.13
2023-03-22T09:41:02.181Z,97346.22
2023-03-22T09:43:03.494Z,97337.88
2023-03-22T09:45:04.827Z,97344.03
2023-03-22T09:47:06.127Z,97334.81
2023-03-22T09:49:07.550Z,97330.69
2023-03-22T09:51:08.843Z,97333.34
2023-03-22T09:53:10.212Z,97330.84
2023-03-22T09:55:11.539Z,97329.06
2023-03-22T09:57:12.841Z,97324.72
2023-03-22T09:59:14.181Z,97323.78
2023-03-22T10:01:15.725Z,97311.78
2023-03-22T10:03:17.319Z,97314.25
2023-03-22T10:05:18.648Z,97308.22
2023-03-22T10:07:19.989Z,97307.44
2023-03-22T10:09:21.336Z,97293.06
2023-03-22T10:11:22.635Z,97290.44
2023-03-22T10:13:23.952Z,97289.53
2023-03-22T10:15:25.296Z,97291.16
2023-03-22T10:17:26.588Z,97297.81
2023-03-22T10:19:27.903Z,97286.81
2023-03-22T10:21:29.191Z,97280.88
2023-03-22T10:23:30.663Z,97287.66
2023-03-22T10:25:32.764Z,97289.31
2023-03-22T10:27:34.304Z,97286.81
2023-03-22T10:29:35.649Z,97288.69
2023-03-22T10:31:37.002Z,97284.31
2023-03-22T10:33:38.807Z,97278.50
2023-03-22T10:35:40.482Z,97272.38
2023-03-22T10:37:41.933Z,97275.72
2023-03-22T10:39:43.248Z,97262.25
2023-03-22T10:41:44.601Z,97262.94
2023-03-22T10:43:46.113Z,97269.63
2023-03-22T10:45:47.461Z,97274.66
2023-03-22T10:47:48.856Z,97267.81
2023-03-22T10:49:53.206Z,97270.38
2023-03-22T10:51:54.747Z,97274.53
2023-03-22T10:53:56.249Z,97272.88
2023-03-22T10:55:57.684Z,97270.28
2023-03-22T10:57:58.980Z,97270.38
2023-03-22T11:00:00.329Z,97269.63
2023-03-22T11:02:02.277Z,97262.81
2023-03-22T11:04:03.660Z,97264.53
2023-03-22T11:06:04.995Z,97268.97
2023-03-22T11:08:06.748Z,97267.44
2023-03-22T11:10:08.068Z,97254.00
2023-03-22T11:12:09.458Z,97257.53
2023-03-22T11:14:10.767Z,97251.66
2023-03-22T11:16:12.119Z,97255.97
2023-03-22T11:18:14.225Z,97257.78
2023-03-22T11:20:15.838Z,97257.78
2023-03-22T11:22:17.151Z,97250.09
2023-03-22T11:24:18.489Z,97237.19
2023-03-22T11:26:19.778Z,97242.19
2023-03-22T11:28:21.127Z,97236.13
2023-03-22T11:30:22.479Z,97232.66
2023-03-22T11:32:23.843Z,97230.13
2023-03-22T11:34:26.341Z,97221.59
2023-03-22T11:36:27.891Z,97228.41
2023-03-22T11:38:32.684Z,97229.31
2023-03-22T11:40:33.993Z,97219.97
2023-03-22T11:42:35.815Z,97215.75
2023-03-22T11:44:38.507Z,97219.22
2023-03-22T11:46:39.986Z,97218.38
2023-03-22T11:48:41.467Z,97213.47
2023-03-22T11:50:43.179Z,97207.53
2023-03-22T11:52:44.720Z,97216.09
2023-03-22T11:54:46.074Z,97204.28
2023-03-22T11:56:47.397Z,97199.28
2023-03-22T11:58:49.124Z,97202.69
2023-03-22T12:00:52.489Z,97195.81
2023-03-22T12:02:53.907Z,97198.31
2023-03-22T12:04:57.354Z,97205.06
2023-03-22T12:06:58.866Z,97199.78
2023-03-22T12:09:00.231Z,97198.69
2023-03-22T12:11:01.527Z,97196.81
2023-03-22T12:13:03.231Z,97188.22
2023-03-22T12:15:04.603Z,97187.38
2023-03-22T12:17:06.016Z,97187.44
2023-03-22T12:19:07.368Z,97173.94
2023-03-22T12:21:08.708Z,97176.53
2023-03-22T12:23:10.004Z,97177.47
2023-03-22T12:25:11.308Z,97169.13
2023-03-22T12:27:12.601Z,97169.88
2023-03-22T12:29:15.015Z,97166.50
2023-03-22T12:31:16.543Z,97164.78
2023-03-22T12:33:18.080Z,97160.63
2023-03-22T12:35:19.446Z,97162.34
2023-03-22T12:37:20.755Z,97162.34
2023-03-22T12:39:22.075Z,97152.06
2023-03-22T12:41:23.365Z,97144.38
2023-03-22T12:43:24.664Z,97144.38
2023-03-22T12:45:26.141Z,97012.63
2023-03-22T12:47:27.516Z,97137.56
2023-03-22T12:49:28.880Z,97134.91
2023-03-22T12:51:30.326Z,97135.00
2023-03-22T12:53:31.653Z,97138.44
2023-03-22T12:55:32.948Z,97134.38
2023-03-22T12:57:34.310Z,97132.75
2023-03-22T12:59:35.977Z,97132.00
2023-03-22T13:01:37.351Z,97129.53
2023-03-22T13:03:38.856Z,97126.97
2023-03-22T13:05:40.482Z,97121.94
2023-03-22T13:07:41.926Z,97127.91
2023-03-22T13:09:43.379Z,97126.16
2023-03-22T13:11:44.727Z,97126.97
2023-03-22T13:13:46.081Z,97124.38
2023-03-22T13:15:47.373Z,97122.63
2023-03-22T13:17:49.444Z,97121.69
2023-03-22T13:19:50.950Z,97124.22
2023-03-22T13:21:54.446Z,97112.31
2023-03-22T13:23:56.531Z,97115.53
2023-03-22T13:25:57.844Z,97110.31
2023-03-22T13:27:59.193Z,97109.31
2023-03-22T13:30:00.572Z,97104.97
2023-03-22T13:32:02.015Z,97098.13
2023-03-22T13:34:04.845Z,97091.16
2023-03-22T13:36:07.369Z,97103.81
2023-03-22T13:38:08.816Z,97097.88
2023-03-22T13:40:10.145Z,97093.56
2023-03-22T13:42:11.576Z,97096.16
2023-03-22T13:44:12.877Z,97093.63
2023-03-22T13:46:14.246Z,97087.03
2023-03-22T13:48:15.666Z,97081.97
2023-03-22T13:50:17.101Z,97075.88
2023-03-22T13:52:18.428Z,97074.69
2023-03-22T13:54:19.843Z,97081.56
2023-03-22T13:56:21.433Z,97068.72
2023-03-22T13:58:22.824Z,97067.44
2023-03-22T14:00:24.415Z,97069.88
2023-03-22T14:02:25.974Z,97070.34
2023-03-22T14:04:27.429Z,97065.53
2023-03-22T14:06:28.926Z,97066.81
2023-03-22T14:08:30.294Z,97066.22
2023-03-22T14:10:31.608Z,97060.47
2023-03-22T14:12:32.891Z,97059.53
2023-03-22T14:14:34.225Z,97056.22
2023-03-22T14:16:35.694Z,97056.03
2023-03-22T14:18:36.987Z,97051.56
2023-03-22T14:20:38.313Z,97051.50
